| time (UTC) | temp F | wind direction | speed MPH | gust MPH | rain 1hr in | rain 24hr in | rain mn in | humidity % | barometer mb |
| 20260507174527 | 54 | 314 | 8.0 | 14.0 | 0.00 | 0.00 | 0.00 | 41 | 1008.6 |
| 20260507173019 | 55 | 305 | 6.0 | 17.0 | 0.00 | 0.00 | 0.00 | 40 | 1008.8 |
| 20260507171517 | 55 | 307 | 6.0 | 20.0 | 0.00 | 0.00 | 0.00 | 39 | 1008.9 |
| 20260507170010 | 54 | 298 | 5.0 | 16.0 | 0.00 | 0.00 | 0.00 | 44 | 1009.1 |
| 20260507164506 | 53 | 299 | 4.0 | 13.0 | 0.00 | 0.00 | 0.00 | 46 | 1009.4 |
| 20260507163005 | 52 | 291 | 5.0 | 15.0 | 0.00 | 0.00 | 0.00 | 45 | 1009.5 |
| 20260507161546 | 52 | 237 | 6.0 | 13.0 | 0.00 | 0.00 | 0.00 | 47 | 1009.7 |
| 20260507160044 | 52 | 17 | 6.0 | 10.0 | 0.00 | 0.00 | 0.00 | 49 | 1009.8 |
| 20260507154523 | 52 | 224 | 6.0 | 16.0 | 0.00 | 0.00 | 0.00 | 48 | 1009.9 |
| 20260507153022 | 51 | 255 | 5.0 | 14.0 | 0.00 | 0.00 | 0.00 | 49 | 1010.1 |
| 20260507151503 | 52 | 249 | 5.0 | 11.0 | 0.00 | 0.00 | 0.00 | 50 | 1010.3 |
| 20260507150001 | 52 | 322 | 6.0 | 11.0 | 0.00 | 0.00 | 0.00 | 50 | 1010.4 |
| 20260507144542 | 51 | 204 | 7.0 | 15.0 | 0.00 | 0.00 | 0.00 | 51 | 1010.6 |
| 20260507143042 | 50 | 359 | 7.0 | 17.0 | 0.00 | 0.00 | 0.00 | 53 | 1010.9 |
| 20260507141525 | 49 | 239 | 3.0 | 15.0 | 0.00 | 0.00 | 0.00 | 56 | 1010.9 |
| 20260507140024 | 49 | 310 | 6.0 | 13.0 | 0.00 | 0.02 | 0.00 | 55 | 1011.0 |
| 20260507134523 | 49 | 318 | 9.0 | 19.0 | 0.00 | 0.02 | 0.00 | 54 | 1011.2 |
| 20260507133020 | 48 | 216 | 0.0 | 6.0 | 0.00 | 0.02 | 0.00 | 61 | 1011.1 |
| 20260507131523 | 47 | 31 | 1.0 | 4.0 | 0.00 | 0.02 | 0.00 | 63 | 1011.1 |
| 20260507130013 | 45 | 293 | 0.0 | 4.0 | 0.00 | 0.05 | 0.00 | 68 | 1011.3 |
| 20260507124511 | 43 | 316 | 2.0 | 3.0 | 0.00 | 0.05 | 0.00 | 76 | 1011.3 |
| 20260507123108 | 41 | 289 | 2.0 | 4.0 | 0.00 | 0.05 | 0.00 | 85 | 1011.5 |
| 20260507121509 | 38 | 301 | 0.0 | 3.0 | 0.00 | 0.05 | 0.00 | 94 | 1011.4 |
| 20260507120100 | 36 | 302 | 0.0 | 3.0 | 0.00 | 0.15 | 0.00 | 95 | 1011.3 |
| 20260507114611 | 34 | 301 | 1.0 | 3.0 | 0.00 | 0.15 | 0.00 | 95 | 1011.4 |
| 20260507113053 | 33 | 301 | 0.0 | 2.0 | 0.00 | 0.15 | 0.00 | 95 | 1011.3 |
| 20260507111551 | 32 | 299 | 0.0 | 2.0 | 0.00 | 0.15 | 0.00 | 94 | 1011.2 |
| 20260507110052 | 31 | 299 | 0.0 | 2.0 | 0.00 | 0.20 | 0.00 | 94 | 1011.1 |
| 20260507104546 | 31 | 301 | 1.0 | 2.0 | 0.00 | 0.20 | 0.00 | 94 | 1011.0 |
| 20260507103045 | 31 | 301 | 1.0 | 2.0 | 0.00 | 0.20 | 0.00 | 93 | 1010.9 |
| 20260507101541 | 31 | 301 | 0.0 | 1.0 | 0.00 | 0.20 | 0.00 | 93 | 1010.7 |
| 20260507100030 | 31 | 301 | 0.0 | 1.0 | 0.00 | 0.28 | 0.00 | 93 | 1010.6 |
| 20260507094518 | 31 | 301 | 1.0 | 2.0 | 0.00 | 0.28 | 0.00 | 93 | 1010.6 |
| 20260507093100 | 32 | 359 | 0.0 | 1.0 | 0.00 | 0.28 | 0.00 | 93 | 1010.4 |
| 20260507091600 | 32 | 302 | 1.0 | 2.0 | 0.00 | 0.28 | 0.00 | 92 | 1010.6 |
| 20260507090039 | 33 | 301 | 0.0 | 2.0 | 0.00 | 0.30 | 0.00 | 91 | 1010.4 |
| 20260507084536 | 33 | 301 | 0.0 | 2.0 | 0.00 | 0.30 | 0.00 | 91 | 1010.5 |
| 20260507083016 | 34 | 301 | 0.0 | 1.0 | 0.00 | 0.30 | 0.00 | 90 | 1010.6 |
| 20260507081532 | 34 | 302 | 0.0 | 1.0 | 0.00 | 0.30 | 0.00 | 89 | 1010.6 |
| 20260507080057 | 35 | 301 | 0.0 | 2.0 | 0.00 | 0.38 | 0.00 | 88 | 1010.6 |
| 20260507074605 | 36 | 302 | 0.0 | 1.0 | 0.00 | 0.38 | 0.00 | 86 | 1010.5 |
| 20260507073046 | 37 | 302 | 0.0 | 1.0 | 0.00 | 0.38 | 0.00 | 84 | 1010.3 |
| 20260507071543 | 38 | 301 | 0.0 | 0.0 | 0.00 | 0.38 | 0.00 | 81 | 1010.3 |
| 20260507070038 | 40 | 301 | 0.0 | 1.0 | 0.00 | 0.43 | 0.00 | 80 | 1010.3 |
| 20260507064534 | 41 | 297 | 0.0 | 2.0 | 0.00 | 0.43 | 0.00 | 78 | 1010.4 |
| 20260507063031 | 42 | 302 | 1.0 | 3.0 | 0.00 | 0.43 | 0.00 | 76 | 1010.5 |
| 20260507061629 | 42 | 300 | 2.0 | 4.0 | 0.00 | 0.43 | 0.00 | 74 | 1010.5 |
| 20260507060016 | 42 | 301 | 2.0 | 5.0 | 0.00 | 0.43 | 0.00 | 73 | 1010.7 |
| 20260507054515 | 43 | 304 | 2.0 | 5.0 | 0.00 | 0.43 | 0.00 | 73 | 1010.9 |
| 20260507053013 | 43 | 295 | 1.0 | 4.0 | 0.00 | 0.43 | 0.00 | 74 | 1010.8 |
| 20260507051511 | 43 | 292 | 2.0 | 5.0 | 0.00 | 0.43 | 0.00 | 72 | 1010.9 |
| 20260507050023 | 43 | 296 | 2.0 | 6.0 | 0.00 | 0.43 | 0.43 | 72 | 1010.9 |
| 20260507044508 | 43 | 296 | 3.0 | 5.0 | 0.00 | 0.43 | 0.43 | 72 | 1010.9 |
| 20260507043006 | 44 | 298 | 2.0 | 5.0 | 0.00 | 0.43 | 0.43 | 72 | 1010.9 |
| 20260507041504 | 44 | 297 | 2.0 | 8.0 | 0.00 | 0.43 | 0.43 | 71 | 1010.9 |
| 20260507040051 | 44 | 291 | 2.0 | 4.0 | 0.00 | 0.43 | 0.43 | 72 | 1010.7 |
| 20260507034557 | 44 | 293 | 1.0 | 4.0 | 0.00 | 0.43 | 0.43 | 73 | 1010.6 |
| 20260507033053 | 44 | 283 | 1.0 | 3.0 | 0.00 | 0.43 | 0.43 | 73 | 1010.6 |
| 20260507031603 | 44 | 303 | 1.0 | 4.0 | 0.00 | 0.43 | 0.43 | 74 | 1010.3 |
| 20260507030053 | 44 | 301 | 0.0 | 1.0 | 0.00 | 0.43 | 0.43 | 77 | 1010.2 |
| 20260507024546 | 44 | 302 | 0.0 | 2.0 | 0.00 | 0.43 | 0.43 | 76 | 1010.3 |
| 20260507023042 | 45 | 301 | 1.0 | 3.0 | 0.00 | 0.43 | 0.43 | 71 | 1010.1 |
| 20260507021540 | 45 | 301 | 2.0 | 5.0 | 0.00 | 0.43 | 0.43 | 66 | 1010.1 |
| 20260507020039 | 46 | 301 | 2.0 | 5.0 | 0.00 | 0.43 | 0.43 | 65 | 1010.2 |
| 20260507014546 | 46 | 287 | 3.0 | 9.0 | 0.00 | 0.43 | 0.43 | 68 | 1010.2 |
| 20260507013023 | 46 | 287 | 0.0 | 1.0 | 0.00 | 0.43 | 0.43 | 72 | 1010.3 |
| 20260507011522 | 46 | 287 | 1.0 | 5.0 | 0.00 | 0.43 | 0.43 | 69 | 1010.4 |
| 20260507010020 | 47 | 291 | 2.0 | 4.0 | 0.00 | 0.43 | 0.43 | 66 | 1010.3 |
| 20260507004521 | 47 | 286 | 2.0 | 6.0 | 0.00 | 0.43 | 0.43 | 64 | 1010.0 |
| 20260507003019 | 47 | 280 | 6.0 | 10.0 | 0.00 | 0.43 | 0.43 | 64 | 1010.3 |
| 20260507001521 | 48 | 315 | 3.0 | 8.0 | 0.00 | 0.43 | 0.43 | 62 | 1009.9 |
| 20260507000011 | 48 | 295 | 2.0 | 8.0 | 0.00 | 0.43 | 0.43 | 62 | 1009.6 |
| 20260506234508 | 49 | 300 | 3.0 | 6.0 | 0.00 | 0.43 | 0.43 | 64 | 1009.3 |
| 20260506233102 | 49 | 301 | 4.0 | 11.0 | 0.00 | 0.43 | 0.43 | 65 | 1008.8 |
| 20260506231544 | 50 | 287 | 4.0 | 11.0 | 0.00 | 0.43 | 0.43 | 74 | 1008.3 |
| 20260506230033 | 50 | 297 | 2.0 | 4.0 | 0.00 | 0.43 | 0.43 | 77 | 1008.3 |
| 20260506224532 | 50 | 283 | 1.0 | 6.0 | 0.00 | 0.43 | 0.43 | 77 | 1008.1 |
| 20260506223030 | 50 | 252 | 5.0 | 10.0 | 0.00 | 0.43 | 0.43 | 76 | 1008.1 |
| 20260506221530 | 50 | 287 | 3.0 | 6.0 | 0.00 | 0.43 | 0.43 | 78 | 1007.8 |
| 20260506220029 | 50 | 291 | 3.0 | 5.0 | 0.00 | 0.43 | 0.43 | 81 | 1008.0 |
| 20260506214526 | 50 | 282 | 1.0 | 8.0 | 0.00 | 0.43 | 0.43 | 82 | 1007.6 |
| 20260506213025 | 49 | 268 | 1.0 | 7.0 | 0.00 | 0.43 | 0.43 | 81 | 1007.4 |
| 20260506211523 | 50 | 297 | 2.0 | 4.0 | 0.00 | 0.43 | 0.43 | 81 | 1007.1 |
| 20260506210009 | 50 | 314 | 4.0 | 9.0 | 0.00 | 0.43 | 0.43 | 81 | 1007.0 |
| 20260506204505 | 50 | 266 | 6.0 | 9.0 | 0.00 | 0.43 | 0.43 | 81 | 1007.1 |
| 20260506203046 | 50 | 311 | 5.0 | 11.0 | 0.00 | 0.43 | 0.43 | 81 | 1007.1 |
| 20260506201543 | 50 | 260 | 4.0 | 9.0 | 0.00 | 0.43 | 0.43 | 83 | 1006.9 |
| 20260506200023 | 50 | 260 | 4.0 | 9.0 | 0.00 | 0.43 | 0.43 | 85 | 1006.7 |
| 20260506194521 | 50 | 258 | 7.0 | 12.0 | 0.00 | 0.43 | 0.43 | 85 | 1006.5 |
| 20260506193106 | 50 | 295 | 8.0 | 12.0 | 0.00 | 0.43 | 0.43 | 85 | 1006.3 |
| 20260506191558 | 51 | 235 | 4.0 | 8.0 | 0.00 | 0.43 | 0.43 | 86 | 1006.0 |
| 20260506190050 | 50 | 303 | 3.0 | 8.0 | 0.00 | 0.43 | 0.43 | 86 | 1006.0 |
| 20260506184545 | 51 | 11 | 0.0 | 8.0 | 0.00 | 0.43 | 0.43 | 88 | 1005.8 |
| 20260506183044 | 50 | 288 | 1.0 | 9.0 | 0.00 | 0.43 | 0.43 | 90 | 1005.9 |
| 20260506181542 | 50 | 278 | 3.0 | 10.0 | 0.00 | 0.43 | 0.43 | 91 | 1005.8 |
| 20260506180050 | 50 | 289 | 4.0 | 10.0 | 0.00 | 0.43 | 0.43 | 92 | 1005.7 |